TimeMST,TemperatureF,Dew PointF,Humidity,Sea Level PressureIn,VisibilityMPH,Wind Direction,Wind SpeedMPH,Gust SpeedMPH,PrecipitationIn,Events,Conditions,WindDirDegrees,DateUTC
12:48 AM,32.0,25.0,75,29.97,-9999.0,NW,21.9,27.6,N/A,,Unknown,310,2013-02-24 07:48:00
1:48 AM,32.0,26.1,79,30.01,-9999.0,NW,15.0,-,N/A,,Unknown,310,2013-02-24 08:48:00
2:48 AM,30.9,25.0,79,30.04,-9999.0,WNW,16.1,23.0,N/A,,Unknown,300,2013-02-24 09:48:00
3:48 AM,27.0,23.0,85,30.07,-9999.0,WNW,11.5,-,N/A,,Unknown,290,2013-02-24 10:48:00
4:48 AM,26.1,21.9,84,30.10,-9999.0,WNW,11.5,-,N/A,,Unknown,300,2013-02-24 11:48:00
5:48 AM,24.1,21.0,88,30.14,-9999.0,WNW,8.1,-,N/A,,Unknown,300,2013-02-24 12:48:00
6:48 AM,21.9,19.0,89,30.16,-9999.0,WNW,5.8,-,N/A,,Unknown,290,2013-02-24 13:48:00
7:48 AM,25.0,21.0,85,30.17,-9999.0,West,4.6,-,N/A,,Unknown,270,2013-02-24 14:48:00
8:48 AM,30.9,23.0,72,30.18,-9999.0,West,8.1,-,N/A,,Unknown,260,2013-02-24 15:48:00
9:48 AM,35.1,24.1,64,30.18,-9999.0,West,6.9,-,N/A,,Unknown,260,2013-02-24 16:48:00
10:48 AM,39.0,21.0,49,30.16,-9999.0,WNW,8.1,-,N/A,,Unknown,290,2013-02-24 17:48:00
11:48 AM,39.9,19.9,45,30.14,-9999.0,West,9.2,-,N/A,,Unknown,270,2013-02-24 18:48:00
12:48 PM,43.0,17.1,35,30.11,-9999.0,WSW,9.2,16.1,N/A,,Unknown,250,2013-02-24 19:48:00
1:48 PM,44.1,16.0,32,30.09,-9999.0,West,12.7,-,N/A,,Unknown,260,2013-02-24 20:48:00
2:48 PM,44.1,16.0,32,30.07,-9999.0,WSW,11.5,-,N/A,,Unknown,240,2013-02-24 21:48:00
3:48 PM,45.0,16.0,31,30.06,-9999.0,SW,12.7,19.6,N/A,,Unknown,220,2013-02-24 22:48:00
4:48 PM,43.0,15.1,32,30.05,-9999.0,SSW,13.8,-,N/A,,Unknown,210,2013-02-24 23:48:00
5:48 PM,36.0,17.1,46,30.06,-9999.0,South,9.2,-,N/A,,Unknown,190,2013-02-25 00:48:00
6:48 PM,36.0,18.0,48,30.07,-9999.0,SSW,11.5,-,N/A,,Unknown,210,2013-02-25 01:48:00
8:48 PM,32.0,21.0,64,30.05,-9999.0,SSW,11.5,-,N/A,,Unknown,200,2013-02-25 03:48:00
9:48 PM,30.0,21.0,69,30.04,-9999.0,SSW,11.5,-,N/A,,Unknown,200,2013-02-25 04:48:00
10:48 PM,28.0,19.9,72,30.02,-9999.0,WNW,3.5,-,N/A,,Unknown,290,2013-02-25 05:48:00
11:48 PM,27.0,19.9,75,30.02,-9999.0,WNW,6.9,-,N/A,,Unknown,290,2013-02-25 06:48:00